PWSweather.com
Personal Weather Stations
Station Observations
AC5JC
Greenleaf Peninsula, Waco, Waco, TX 76710

Greenleaf Peninsula, WacoWaco, TX 76710

Lat: 31.565, Lon: -97.198

Elevation: 570

Station Type: Ambient WS-1400IP

http://ac5jc.dyndns.org

Latest ConditionsUpdated 8:10:00 PM CDT Monday, Mar 25, 2019
Currently Today's Max Today's Min Today's Average
Temperature 68.4°F20.2°C 75.8°F24.3°C 62.7°F17.1°C 69.6°F20.9°C
Dew Point 46.2°F7.9°C 65.8°F18.8°C 43.3°F6.3°C 54.1°F12.3°C
Winds 0.8 mph N1.3 kmh N 11.9 mph -19.2 kmh - - 3.8 mph 6.1 kmh
Wind Gusts 2.5 mph4.0 kmh 19.9 mph32.0 kmh - -
Humidity 45% 96% 32% 63%
Pressure 29.58 in1001.7 mb 29.59 in1002.0 mb 29.40 in995.6 mb -
Hour Temp Dew Point Humidity Winds Wind Gusts Pressure Precip Precip Rate Daily Precip Total
08:10 PM 68.4°F20.2°C 46.2°F7.9°C 45% 0.8 mph N1.3 kmh N 2.5 mph4.0 kmh 29.58 in1001.7 mb 0.00 in0.0 mm 0.00 in0.0 mm 0.00 in0.0 mm
08:05 PM 68.4°F20.2°C 46.3°F7.9°C 45% 2.0 mph NNE3.2 kmh NNE 4.9 mph7.9 kmh 29.58 in1001.7 mb 0.00 in0.0 mm 0.00 in0.0 mm 0.00 in0.0 mm
08:00 PM 68.5°F20.3°C 45.9°F7.7°C 44% 2.5 mph NNE4.0 kmh NNE 9.8 mph15.8 kmh 29.57 in1001.4 mb 0.00 in0.0 mm 0.00 in0.0 mm 0.00 in0.0 mm
07:55 PM 69.3°F20.7°C 46.5°F8.1°C 44% 0.8 mph N1.3 kmh N 4.9 mph7.9 kmh 29.57 in1001.4 mb 0.00 in0.0 mm 0.00 in0.0 mm 0.00 in0.0 mm
07:50 PM 69.4°F20.8°C 46.0°F7.8°C 43% 0.9 mph NNE1.4 kmh NNE 4.9 mph7.9 kmh 29.57 in1001.4 mb 0.00 in0.0 mm 0.00 in0.0 mm 0.00 in0.0 mm
07:45 PM 69.4°F20.8°C 45.5°F7.5°C 42% 2.5 mph NW4.0 kmh NW 4.9 mph7.9 kmh 29.57 in1001.4 mb 0.00 in0.0 mm 0.00 in0.0 mm 0.00 in0.0 mm
07:40 PM 69.5°F20.8°C 45.4°F7.4°C 42% 2.0 mph NNW3.2 kmh NNW 4.9 mph7.9 kmh 29.57 in1001.4 mb 0.00 in0.0 mm 0.00 in0.0 mm 0.00 in0.0 mm
07:35 PM 70.8°F21.6°C 46.2°F7.9°C 41% 1.0 mph N1.6 kmh N 2.5 mph4.0 kmh 29.57 in1001.4 mb 0.00 in0.0 mm 0.00 in0.0 mm 0.00 in0.0 mm
07:30 PM 71.2°F21.8°C 46.3°F7.9°C 41% 1.6 mph N2.6 kmh N 4.9 mph7.9 kmh 29.57 in1001.4 mb 0.00 in0.0 mm 0.00 in0.0 mm 0.00 in0.0 mm
07:25 PM 71.5°F21.9°C 45.9°F7.7°C 40% 1.4 mph NW2.3 kmh NW 4.9 mph7.9 kmh 29.57 in1001.4 mb 0.00 in0.0 mm 0.00 in0.0 mm 0.00 in0.0 mm
07:20 PM 71.8°F22.1°C 46.1°F7.8°C 40% 2.2 mph N3.5 kmh N 4.9 mph7.9 kmh 29.57 in1001.4 mb 0.00 in0.0 mm 0.00 in0.0 mm 0.00 in0.0 mm
07:15 PM 72.5°F22.5°C 45.6°F7.6°C 38% 2.4 mph N3.9 kmh N 4.9 mph7.9 kmh 29.57 in1001.4 mb 0.00 in0.0 mm 0.00 in0.0 mm 0.00 in0.0 mm
07:10 PM 72.7°F22.6°C 45.6°F7.6°C 38% 1.6 mph N2.6 kmh N 4.9 mph7.9 kmh 29.57 in1001.4 mb 0.00 in0.0 mm 0.00 in0.0 mm 0.00 in0.0 mm
07:05 PM 72.7°F22.6°C 45.6°F7.6°C 38% 3.7 mph NNW6.0 kmh NNW 9.8 mph15.8 kmh 29.57 in1001.4 mb 0.00 in0.0 mm 0.00 in0.0 mm 0.00 in0.0 mm
07:00 PM 72.9°F22.7°C 45.8°F7.7°C 38% 2.9 mph N4.7 kmh N 7.4 mph11.9 kmh 29.57 in1001.4 mb 0.00 in0.0 mm 0.00 in0.0 mm 0.00 in0.0 mm
06:55 PM 73.6°F23.1°C 45.9°F7.7°C 37% 2.7 mph NNW4.3 kmh NNW 4.9 mph7.9 kmh 29.56 in1001.0 mb 0.00 in0.0 mm 0.00 in0.0 mm 0.00 in0.0 mm
06:50 PM 73.9°F23.3°C 44.7°F7.1°C 35% 5.3 mph N8.5 kmh N 9.8 mph15.8 kmh 29.56 in1001.0 mb 0.00 in0.0 mm 0.00 in0.0 mm 0.00 in0.0 mm
06:45 PM 73.9°F23.3°C 44.5°F6.9°C 35% 4.9 mph NNW7.9 kmh NNW 9.8 mph15.8 kmh 29.56 in1001.0 mb 0.00 in0.0 mm 0.00 in0.0 mm 0.00 in0.0 mm
06:40 PM 73.9°F23.3°C 43.9°F6.6°C 34% 4.1 mph N6.6 kmh N 15.0 mph24.1 kmh 29.57 in1001.4 mb 0.00 in0.0 mm 0.00 in0.0 mm 0.00 in0.0 mm
06:35 PM 74.3°F23.5°C 44.1°F6.7°C 34% 2.4 mph NW3.9 kmh NW 4.9 mph7.9 kmh 29.57 in1001.4 mb 0.00 in0.0 mm 0.00 in0.0 mm 0.00 in0.0 mm
06:30 PM 74.5°F23.6°C 44.4°F6.9°C 34% 5.1 mph N8.2 kmh N 12.3 mph19.8 kmh 29.56 in1001.0 mb 0.00 in0.0 mm 0.00 in0.0 mm 0.00 in0.0 mm
06:25 PM 74.5°F23.6°C 44.3°F6.8°C 34% 5.5 mph NNW8.9 kmh NNW 12.3 mph19.8 kmh 29.56 in1001.0 mb 0.00 in0.0 mm 0.00 in0.0 mm 0.00 in0.0 mm
06:20 PM 74.6°F23.7°C 44.0°F6.7°C 34% 4.5 mph NW7.2 kmh NW 9.8 mph15.8 kmh 29.56 in1001.0 mb 0.00 in0.0 mm 0.00 in0.0 mm 0.00 in0.0 mm
06:15 PM 74.9°F23.8°C 43.8°F6.6°C 33% 6.7 mph N10.8 kmh N 12.3 mph19.8 kmh 29.56 in1001.0 mb 0.00 in0.0 mm 0.00 in0.0 mm 0.00 in0.0 mm
06:10 PM 75.0°F23.9°C 43.9°F6.6°C 33% 6.6 mph NNW10.6 kmh NNW 9.8 mph15.8 kmh 29.56 in1001.0 mb 0.00 in0.0 mm 0.00 in0.0 mm 0.00 in0.0 mm
06:05 PM 75.0°F23.9°C 43.9°F6.6°C 33% 3.7 mph N6.0 kmh N 7.4 mph11.9 kmh 29.55 in1000.7 mb 0.00 in0.0 mm 0.00 in0.0 mm 0.00 in0.0 mm
06:00 PM 75.0°F23.9°C 43.4°F6.3°C 32% 6.0 mph NNW9.7 kmh NNW 9.8 mph15.8 kmh 29.56 in1001.0 mb 0.00 in0.0 mm 0.00 in0.0 mm 0.00 in0.0 mm
05:55 PM 75.2°F24.0°C 43.4°F6.3°C 32% 7.8 mph N12.6 kmh N 12.3 mph19.8 kmh 29.55 in1000.7 mb 0.00 in0.0 mm 0.00 in0.0 mm 0.00 in0.0 mm
05:50 PM 75.2°F24.0°C 43.4°F6.3°C 32% 4.1 mph N6.6 kmh N 9.8 mph15.8 kmh 29.55 in1000.7 mb 0.00 in0.0 mm 0.00 in0.0 mm 0.00 in0.0 mm
05:45 PM 75.2°F24.0°C 43.3°F6.3°C 32% 5.9 mph N9.5 kmh N 12.3 mph19.8 kmh 29.55 in1000.7 mb 0.00 in0.0 mm 0.00 in0.0 mm 0.00 in0.0 mm
05:40 PM 75.3°F24.1°C 43.4°F6.3°C 32% 4.5 mph N7.2 kmh N 7.4 mph11.9 kmh 29.55 in1000.7 mb 0.00 in0.0 mm 0.00 in0.0 mm 0.00 in0.0 mm
05:35 PM 75.4°F24.1°C 43.8°F6.6°C 32% 6.5 mph NNW10.5 kmh NNW 12.3 mph19.8 kmh 29.55 in1000.7 mb 0.00 in0.0 mm 0.00 in0.0 mm 0.00 in0.0 mm
05:30 PM 75.5°F24.2°C 44.0°F6.7°C 32% 8.7 mph NNW14.0 kmh NNW 15.0 mph24.1 kmh 29.55 in1000.7 mb 0.00 in0.0 mm 0.00 in0.0 mm 0.00 in0.0 mm
05:25 PM 75.6°F24.2°C 43.6°F6.4°C 32% 5.5 mph NNW8.9 kmh NNW 12.3 mph19.8 kmh 29.55 in1000.7 mb 0.00 in0.0 mm 0.00 in0.0 mm 0.00 in0.0 mm
05:20 PM 75.6°F24.2°C 44.3°F6.8°C 33% 5.2 mph NNW8.4 kmh NNW 9.8 mph15.8 kmh 29.55 in1000.7 mb 0.00 in0.0 mm 0.00 in0.0 mm 0.00 in0.0 mm
05:15 PM 75.4°F24.1°C 44.3°F6.8°C 33% 4.8 mph N7.7 kmh N 9.8 mph15.8 kmh 29.54 in1000.3 mb 0.00 in0.0 mm 0.00 in0.0 mm 0.00 in0.0 mm
05:10 PM 75.4°F24.1°C 44.3°F6.8°C 33% 4.6 mph NNW7.4 kmh NNW 12.3 mph19.8 kmh 29.55 in1000.7 mb 0.00 in0.0 mm 0.00 in0.0 mm 0.00 in0.0 mm
05:05 PM 75.4°F24.1°C 44.7°F7.1°C 34% 5.0 mph N8.0 kmh N 9.8 mph15.8 kmh 29.54 in1000.3 mb 0.00 in0.0 mm 0.00 in0.0 mm 0.00 in0.0 mm
05:00 PM 75.2°F24.0°C 44.4°F6.9°C 33% 4.8 mph N7.7 kmh N 12.3 mph19.8 kmh 29.55 in1000.7 mb 0.00 in0.0 mm 0.00 in0.0 mm 0.00 in0.0 mm
04:55 PM 75.2°F24.0°C 44.1°F6.7°C 33% 4.4 mph NNW7.1 kmh NNW 9.8 mph15.8 kmh 29.55 in1000.7 mb 0.00 in0.0 mm 0.00 in0.0 mm 0.00 in0.0 mm
04:50 PM 75.2°F24.0°C 44.0°F6.7°C 33% 7.3 mph N11.7 kmh N 15.0 mph24.1 kmh 29.55 in1000.7 mb 0.00 in0.0 mm 0.00 in0.0 mm 0.00 in0.0 mm
04:45 PM 75.2°F24.0°C 44.1°F6.7°C 33% 6.5 mph N10.5 kmh N 12.3 mph19.8 kmh 29.55 in1000.7 mb 0.00 in0.0 mm 0.00 in0.0 mm 0.00 in0.0 mm
04:40 PM 75.2°F24.0°C 43.8°F6.6°C 33% 5.4 mph NNW8.7 kmh NNW 12.3 mph19.8 kmh 29.55 in1000.7 mb 0.00 in0.0 mm 0.00 in0.0 mm 0.00 in0.0 mm
04:35 PM 75.4°F24.1°C 44.3°F6.8°C 33% 6.2 mph N10.0 kmh N 15.0 mph24.1 kmh 29.55 in1000.7 mb 0.00 in0.0 mm 0.00 in0.0 mm 0.00 in0.0 mm
04:30 PM 75.7°F24.3°C 45.2°F7.3°C 34% 4.8 mph N7.7 kmh N 9.8 mph15.8 kmh 29.55 in1000.7 mb 0.00 in0.0 mm 0.00 in0.0 mm 0.00 in0.0 mm
04:25 PM 75.7°F24.3°C 44.7°F7.1°C 33% 4.8 mph NNE7.7 kmh NNE 15.0 mph24.1 kmh 29.55 in1000.7 mb 0.00 in0.0 mm 0.00 in0.0 mm 0.00 in0.0 mm
04:20 PM 75.8°F24.3°C 44.6°F7.0°C 33% 7.4 mph NW11.9 kmh NW 12.3 mph19.8 kmh 29.55 in1000.7 mb 0.00 in0.0 mm 0.00 in0.0 mm 0.00 in0.0 mm
04:15 PM 75.8°F24.3°C 45.1°F7.3°C 34% 5.2 mph NNW8.4 kmh NNW 9.8 mph15.8 kmh 29.55 in1000.7 mb 0.00 in0.0 mm 0.00 in0.0 mm 0.00 in0.0 mm
04:10 PM 75.6°F24.2°C 45.1°F7.3°C 34% 5.1 mph NNW8.2 kmh NNW 9.8 mph15.8 kmh 29.55 in1000.7 mb 0.00 in0.0 mm 0.00 in0.0 mm 0.00 in0.0 mm
04:05 PM 75.7°F24.3°C 45.3°F7.4°C 34% 5.6 mph NW9.0 kmh NW 12.3 mph19.8 kmh 29.55 in1000.7 mb 0.00 in0.0 mm 0.00 in0.0 mm 0.00 in0.0 mm
04:00 PM 75.6°F24.2°C 45.2°F7.3°C 34% 4.1 mph NW6.6 kmh NW 12.3 mph19.8 kmh 29.55 in1000.7 mb 0.00 in0.0 mm 0.00 in0.0 mm 0.00 in0.0 mm
03:55 PM 75.6°F24.2°C 45.2°F7.3°C 34% 3.8 mph NNW6.1 kmh NNW 4.9 mph7.9 kmh 29.55 in1000.7 mb 0.00 in0.0 mm 0.00 in0.0 mm 0.00 in0.0 mm
03:50 PM 75.4°F24.1°C 45.8°F7.7°C 35% 5.1 mph NNW8.2 kmh NNW 12.3 mph19.8 kmh 29.55 in1000.7 mb 0.00 in0.0 mm 0.00 in0.0 mm 0.00 in0.0 mm
03:45 PM 75.4°F24.1°C 46.0°F7.8°C 35% 6.9 mph N11.1 kmh N 15.0 mph24.1 kmh 29.55 in1000.7 mb 0.00 in0.0 mm 0.00 in0.0 mm 0.00 in0.0 mm
03:40 PM 75.4°F24.1°C 46.4°F8.0°C 36% 6.5 mph NNW10.5 kmh NNW 12.3 mph19.8 kmh 29.56 in1001.0 mb 0.00 in0.0 mm 0.00 in0.0 mm 0.00 in0.0 mm
03:35 PM 75.3°F24.1°C 46.5°F8.1°C 36% 6.1 mph N9.8 kmh N 12.3 mph19.8 kmh 29.55 in1000.7 mb 0.00 in0.0 mm 0.00 in0.0 mm 0.00 in0.0 mm
03:30 PM 75.2°F24.0°C 46.6°F8.1°C 36% 7.5 mph NNW12.1 kmh NNW 12.3 mph19.8 kmh 29.56 in1001.0 mb 0.00 in0.0 mm 0.00 in0.0 mm 0.00 in0.0 mm
03:25 PM 75.0°F23.9°C 46.9°F8.3°C 37% 4.3 mph NW6.9 kmh NW 7.4 mph11.9 kmh 29.56 in1001.0 mb 0.00 in0.0 mm 0.00 in0.0 mm 0.00 in0.0 mm
03:20 PM 74.9°F23.8°C 47.5°F8.6°C 38% 5.1 mph NW8.2 kmh NW 9.8 mph15.8 kmh 29.55 in1000.7 mb 0.00 in0.0 mm 0.00 in0.0 mm 0.00 in0.0 mm
03:15 PM 74.8°F23.8°C 47.3°F8.5°C 38% 6.9 mph NNW11.1 kmh NNW 15.0 mph24.1 kmh 29.56 in1001.0 mb 0.00 in0.0 mm 0.00 in0.0 mm 0.00 in0.0 mm
03:10 PM 75.4°F24.1°C 47.3°F8.5°C 37% 6.8 mph N10.9 kmh N 12.3 mph19.8 kmh 29.56 in1001.0 mb 0.00 in0.0 mm 0.00 in0.0 mm 0.00 in0.0 mm
03:05 PM 75.4°F24.1°C 46.7°F8.2°C 36% 4.0 mph N6.4 kmh N 7.4 mph11.9 kmh 29.56 in1001.0 mb 0.00 in0.0 mm 0.00 in0.0 mm 0.00 in0.0 mm
03:00 PM 75.4°F24.1°C 46.0°F7.8°C 35% 4.1 mph NW6.6 kmh NW 12.3 mph19.8 kmh 29.56 in1001.0 mb 0.00 in0.0 mm 0.00 in0.0 mm 0.00 in0.0 mm
02:55 PM 75.4°F24.1°C 45.8°F7.7°C 35% 5.1 mph N8.2 kmh N 12.3 mph19.8 kmh 29.56 in1001.0 mb 0.00 in0.0 mm 0.00 in0.0 mm 0.00 in0.0 mm
02:50 PM 74.9°F23.8°C 45.1°F7.3°C 35% 5.4 mph N8.7 kmh N 12.3 mph19.8 kmh 29.57 in1001.4 mb 0.00 in0.0 mm 0.00 in0.0 mm 0.00 in0.0 mm
02:45 PM 74.8°F23.8°C 45.8°F7.7°C 36% 7.1 mph N11.4 kmh N 12.3 mph19.8 kmh 29.57 in1001.4 mb 0.00 in0.0 mm 0.00 in0.0 mm 0.00 in0.0 mm
02:40 PM 74.6°F23.7°C 46.3°F7.9°C 37% 5.3 mph NE8.5 kmh NE 17.4 mph28.0 kmh 29.57 in1001.4 mb 0.00 in0.0 mm 0.00 in0.0 mm 0.00 in0.0 mm
02:35 PM 74.4°F23.6°C 47.0°F8.3°C 38% 2.6 mph N4.2 kmh N 7.4 mph11.9 kmh 29.57 in1001.4 mb 0.00 in0.0 mm 0.00 in0.0 mm 0.00 in0.0 mm
02:30 PM 74.4°F23.6°C 46.0°F7.8°C 36% 6.6 mph N10.6 kmh N 15.0 mph24.1 kmh 29.57 in1001.4 mb 0.00 in0.0 mm 0.00 in0.0 mm 0.00 in0.0 mm
02:25 PM 74.3°F23.5°C 44.9°F7.2°C 35% 4.6 mph N7.4 kmh N 9.8 mph15.8 kmh 29.57 in1001.4 mb 0.00 in0.0 mm 0.00 in0.0 mm 0.00 in0.0 mm
02:20 PM 74.3°F23.5°C 45.2°F7.3°C 36% 7.5 mph N12.1 kmh N 12.3 mph19.8 kmh 29.57 in1001.4 mb 0.00 in0.0 mm 0.00 in0.0 mm 0.00 in0.0 mm
02:15 PM 74.3°F23.5°C 45.5°F7.5°C 36% 6.8 mph N10.9 kmh N 9.8 mph15.8 kmh 29.57 in1001.4 mb 0.00 in0.0 mm 0.00 in0.0 mm 0.00 in0.0 mm
02:10 PM 73.9°F23.3°C 45.2°F7.3°C 36% 6.4 mph N10.3 kmh N 17.4 mph28.0 kmh 29.57 in1001.4 mb 0.00 in0.0 mm 0.00 in0.0 mm 0.00 in0.0 mm
02:05 PM 73.9°F23.3°C 45.5°F7.5°C 36% 8.6 mph NNW13.8 kmh NNW 15.0 mph24.1 kmh 29.57 in1001.4 mb 0.00 in0.0 mm 0.00 in0.0 mm 0.00 in0.0 mm
02:00 PM 73.9°F23.3°C 45.2°F7.3°C 36% 6.9 mph N11.1 kmh N 15.0 mph24.1 kmh 29.57 in1001.4 mb 0.00 in0.0 mm 0.00 in0.0 mm 0.00 in0.0 mm
01:55 PM 73.8°F23.2°C 45.5°F7.5°C 36% 5.9 mph N9.5 kmh N 9.8 mph15.8 kmh 29.57 in1001.4 mb 0.00 in0.0 mm 0.00 in0.0 mm 0.00 in0.0 mm
01:50 PM 73.8°F23.2°C 45.6°F7.6°C 37% 5.2 mph N8.4 kmh N 7.4 mph11.9 kmh 29.58 in1001.7 mb 0.00 in0.0 mm 0.00 in0.0 mm 0.00 in0.0 mm
01:45 PM 73.7°F23.2°C 45.1°F7.3°C 36% 6.6 mph NNE10.6 kmh NNE 15.0 mph24.1 kmh 29.58 in1001.7 mb 0.00 in0.0 mm 0.00 in0.0 mm 0.00 in0.0 mm
01:40 PM 73.6°F23.1°C 45.3°F7.4°C 36% 4.8 mph N7.7 kmh N 7.4 mph11.9 kmh 29.58 in1001.7 mb 0.00 in0.0 mm 0.00 in0.0 mm 0.00 in0.0 mm
01:35 PM 73.6°F23.1°C 45.7°F7.6°C 37% 6.0 mph NE9.7 kmh NE 15.0 mph24.1 kmh 29.58 in1001.7 mb 0.00 in0.0 mm 0.00 in0.0 mm 0.00 in0.0 mm
01:30 PM 73.4°F23.0°C 45.2°F7.3°C 37% 6.4 mph NNW10.3 kmh NNW 12.3 mph19.8 kmh 29.58 in1001.7 mb 0.00 in0.0 mm 0.00 in0.0 mm 0.00 in0.0 mm
01:25 PM 73.4°F23.0°C 45.2°F7.3°C 36% 7.6 mph N12.2 kmh N 15.0 mph24.1 kmh 29.58 in1001.7 mb 0.00 in0.0 mm 0.00 in0.0 mm 0.00 in0.0 mm
01:20 PM 73.3°F22.9°C 46.0°F7.8°C 38% 6.2 mph NNE10.0 kmh NNE 12.3 mph19.8 kmh 29.59 in1002.0 mb 0.00 in0.0 mm 0.00 in0.0 mm 0.00 in0.0 mm
01:15 PM 73.3°F22.9°C 46.1°F7.8°C 38% 5.8 mph N9.3 kmh N 12.3 mph19.8 kmh 29.59 in1002.0 mb 0.00 in0.0 mm 0.00 in0.0 mm 0.00 in0.0 mm
01:10 PM 73.2°F22.9°C 46.3°F7.9°C 38% 6.8 mph NNE10.9 kmh NNE 15.0 mph24.1 kmh 29.59 in1002.0 mb 0.00 in0.0 mm 0.00 in0.0 mm 0.00 in0.0 mm
01:05 PM 73.2°F22.9°C 46.1°F7.8°C 38% 5.2 mph N8.4 kmh N 12.3 mph19.8 kmh 29.59 in1002.0 mb 0.00 in0.0 mm 0.00 in0.0 mm 0.00 in0.0 mm
01:00 PM 73.4°F23.0°C 46.9°F8.3°C 39% 6.8 mph NNE10.9 kmh NNE 12.3 mph19.8 kmh 29.59 in1002.0 mb 0.00 in0.0 mm 0.00 in0.0 mm 0.00 in0.0 mm
12:55 PM 73.4°F23.0°C 47.1°F8.4°C 39% 6.6 mph N10.6 kmh N 12.3 mph19.8 kmh 29.59 in1002.0 mb 0.00 in0.0 mm 0.00 in0.0 mm 0.00 in0.0 mm
12:50 PM 72.0°F22.2°C 47.2°F8.4°C 41% 3.7 mph NNE6.0 kmh NNE 7.4 mph11.9 kmh 29.59 in1002.0 mb 0.00 in0.0 mm 0.00 in0.0 mm 0.00 in0.0 mm
12:45 PM 71.5°F21.9°C 48.1°F8.9°C 44% 3.6 mph NNW5.8 kmh NNW 9.8 mph15.8 kmh 29.59 in1002.0 mb 0.00 in0.0 mm 0.00 in0.0 mm 0.00 in0.0 mm
12:40 PM 71.2°F21.8°C 48.4°F9.1°C 44% 6.8 mph NNE10.9 kmh NNE 12.3 mph19.8 kmh 29.59 in1002.0 mb 0.00 in0.0 mm 0.00 in0.0 mm 0.00 in0.0 mm
12:35 PM 71.2°F21.8°C 48.3°F9.1°C 44% 5.2 mph NNE8.4 kmh NNE 12.3 mph19.8 kmh 29.59 in1002.0 mb 0.00 in0.0 mm 0.00 in0.0 mm 0.00 in0.0 mm
12:30 PM 71.3°F21.8°C 48.8°F9.3°C 45% 10.3 mph N16.6 kmh N 12.3 mph19.8 kmh 29.59 in1002.0 mb 0.00 in0.0 mm 0.00 in0.0 mm 0.00 in0.0 mm
12:25 PM 71.4°F21.9°C 48.6°F9.2°C 44% 4.8 mph NNW7.7 kmh NNW 12.3 mph19.8 kmh 29.59 in1002.0 mb 0.00 in0.0 mm 0.00 in0.0 mm 0.00 in0.0 mm
12:20 PM 71.2°F21.8°C 48.8°F9.3°C 45% 5.0 mph N8.0 kmh N 9.8 mph15.8 kmh 29.59 in1002.0 mb 0.00 in0.0 mm 0.00 in0.0 mm 0.00 in0.0 mm
12:15 PM 71.2°F21.8°C 49.9°F9.9°C 47% 5.6 mph N9.0 kmh N 15.0 mph24.1 kmh 29.59 in1002.0 mb 0.00 in0.0 mm 0.00 in0.0 mm 0.00 in0.0 mm
12:10 PM 71.0°F21.7°C 49.3°F9.6°C 46% 4.0 mph N6.4 kmh N 7.4 mph11.9 kmh 29.59 in1002.0 mb 0.00 in0.0 mm 0.00 in0.0 mm 0.00 in0.0 mm
12:05 PM 70.8°F21.6°C 48.4°F9.1°C 45% 4.8 mph NNE7.7 kmh NNE 9.8 mph15.8 kmh 29.59 in1002.0 mb 0.00 in0.0 mm 0.00 in0.0 mm 0.00 in0.0 mm
12:00 PM 70.7°F21.5°C 49.4°F9.7°C 47% 5.6 mph N9.0 kmh N 12.3 mph19.8 kmh 29.59 in1002.0 mb 0.00 in0.0 mm 0.00 in0.0 mm 0.00 in0.0 mm
11:55 AM 70.7°F21.5°C 49.2°F9.6°C 46% 6.0 mph NNE9.7 kmh NNE 12.3 mph19.8 kmh 29.59 in1002.0 mb 0.00 in0.0 mm 0.00 in0.0 mm 0.00 in0.0 mm
11:50 AM 70.4°F21.3°C 49.5°F9.7°C 48% 3.6 mph N5.8 kmh N 7.4 mph11.9 kmh 29.59 in1002.0 mb 0.00 in0.0 mm 0.00 in0.0 mm 0.00 in0.0 mm
11:45 AM 70.2°F21.2°C 50.1°F10.1°C 49% 2.5 mph N4.0 kmh N 4.9 mph7.9 kmh 29.59 in1002.0 mb 0.00 in0.0 mm 0.00 in0.0 mm 0.00 in0.0 mm
11:40 AM 70.2°F21.2°C 50.1°F10.1°C 49% 8.9 mph N14.3 kmh N 15.0 mph24.1 kmh 29.59 in1002.0 mb 0.00 in0.0 mm 0.00 in0.0 mm 0.00 in0.0 mm
11:35 AM 70.0°F21.1°C 50.0°F10.0°C 49% 3.8 mph N6.1 kmh N 7.4 mph11.9 kmh 29.59 in1002.0 mb 0.00 in0.0 mm 0.00 in0.0 mm 0.00 in0.0 mm
11:30 AM 69.8°F21.0°C 49.7°F9.8°C 49% 5.2 mph NE8.4 kmh NE 9.8 mph15.8 kmh 29.58 in1001.7 mb 0.00 in0.0 mm 0.00 in0.0 mm 0.00 in0.0 mm
11:25 AM 69.7°F20.9°C 50.5°F10.3°C 50% 5.5 mph NNW8.9 kmh NNW 12.3 mph19.8 kmh 29.59 in1002.0 mb 0.00 in0.0 mm 0.00 in0.0 mm 0.00 in0.0 mm
11:20 AM 69.8°F21.0°C 50.9°F10.5°C 51% 4.2 mph N6.8 kmh N 12.3 mph19.8 kmh 29.59 in1002.0 mb 0.00 in0.0 mm 0.00 in0.0 mm 0.00 in0.0 mm
11:15 AM 70.0°F21.1°C 51.0°F10.6°C 51% 6.2 mph NNW10.0 kmh NNW 9.8 mph15.8 kmh 29.59 in1002.0 mb 0.00 in0.0 mm 0.00 in0.0 mm 0.00 in0.0 mm
11:10 AM 69.0°F20.6°C 50.5°F10.3°C 52% 3.4 mph NNE5.5 kmh NNE 9.8 mph15.8 kmh 29.58 in1001.7 mb 0.00 in0.0 mm 0.00 in0.0 mm 0.00 in0.0 mm
11:05 AM 68.2°F20.1°C 50.1°F10.1°C 52% 7.6 mph NNW12.2 kmh NNW 15.0 mph24.1 kmh 29.58 in1001.7 mb 0.00 in0.0 mm 0.00 in0.0 mm 0.00 in0.0 mm
11:00 AM 68.2°F20.1°C 50.6°F10.3°C 53% 5.2 mph N8.4 kmh N 15.0 mph24.1 kmh 29.58 in1001.7 mb 0.00 in0.0 mm 0.00 in0.0 mm 0.00 in0.0 mm
10:55 AM 68.2°F20.1°C 50.1°F10.1°C 52% 3.8 mph N6.1 kmh N 7.4 mph11.9 kmh 29.58 in1001.7 mb 0.00 in0.0 mm 0.00 in0.0 mm 0.00 in0.0 mm
10:50 AM 68.0°F20.0°C 49.8°F9.9°C 52% 5.4 mph N8.7 kmh N 12.3 mph19.8 kmh 29.58 in1001.7 mb 0.00 in0.0 mm 0.00 in0.0 mm 0.00 in0.0 mm
10:45 AM 67.8°F19.9°C 49.5°F9.7°C 52% 4.2 mph E6.8 kmh E 7.4 mph11.9 kmh 29.58 in1001.7 mb 0.00 in0.0 mm 0.00 in0.0 mm 0.00 in0.0 mm
10:40 AM 67.6°F19.8°C 49.0°F9.4°C 51% 3.8 mph NE6.1 kmh NE 7.4 mph11.9 kmh 29.57 in1001.4 mb 0.00 in0.0 mm 0.00 in0.0 mm 0.00 in0.0 mm
10:35 AM 67.5°F19.7°C 49.6°F9.8°C 53% 2.2 mph NE3.5 kmh NE 7.4 mph11.9 kmh 29.57 in1001.4 mb 0.00 in0.0 mm 0.00 in0.0 mm 0.00 in0.0 mm
10:30 AM 67.1°F19.5°C 49.4°F9.7°C 53% 3.4 mph N5.5 kmh N 4.9 mph7.9 kmh 29.57 in1001.4 mb 0.00 in0.0 mm 0.00 in0.0 mm 0.00 in0.0 mm
10:25 AM 66.5°F19.2°C 49.6°F9.8°C 54% 5.7 mph N9.2 kmh N 12.3 mph19.8 kmh 29.57 in1001.4 mb 0.00 in0.0 mm 0.00 in0.0 mm 0.00 in0.0 mm
10:20 AM 66.4°F19.1°C 49.7°F9.8°C 55% 3.4 mph N5.5 kmh N 7.4 mph11.9 kmh 29.57 in1001.4 mb 0.00 in0.0 mm 0.00 in0.0 mm 0.00 in0.0 mm
10:15 AM 66.3°F19.1°C 50.0°F10.0°C 56% 4.2 mph NE6.8 kmh NE 9.8 mph15.8 kmh 29.57 in1001.4 mb 0.00 in0.0 mm 0.00 in0.0 mm 0.00 in0.0 mm
10:10 AM 66.3°F19.1°C 49.9°F9.9°C 56% 3.1 mph N5.0 kmh N 7.4 mph11.9 kmh 29.56 in1001.0 mb 0.00 in0.0 mm 0.00 in0.0 mm 0.00 in0.0 mm
10:05 AM 66.4°F19.1°C 50.1°F10.1°C 56% 4.4 mph N7.1 kmh N 9.8 mph15.8 kmh 29.56 in1001.0 mb 0.00 in0.0 mm 0.00 in0.0 mm 0.00 in0.0 mm
10:00 AM 66.5°F19.2°C 50.9°F10.5°C 57% 3.4 mph NNW5.5 kmh NNW 7.4 mph11.9 kmh 29.56 in1001.0 mb 0.00 in0.0 mm 0.00 in0.0 mm 0.00 in0.0 mm
09:55 AM 66.6°F19.2°C 51.2°F10.7°C 58% 5.6 mph N9.0 kmh N 15.0 mph24.1 kmh 29.56 in1001.0 mb 0.00 in0.0 mm 0.00 in0.0 mm 0.00 in0.0 mm
09:50 AM 66.3°F19.1°C 50.8°F10.4°C 57% 5.2 mph NE8.4 kmh NE 9.8 mph15.8 kmh 29.56 in1001.0 mb 0.00 in0.0 mm 0.00 in0.0 mm 0.00 in0.0 mm
09:45 AM 65.7°F18.7°C 51.2°F10.7°C 59% 1.9 mph S3.1 kmh S 4.9 mph7.9 kmh 29.55 in1000.7 mb 0.00 in0.0 mm 0.00 in0.0 mm 0.00 in0.0 mm
09:40 AM 65.7°F18.7°C 52.0°F11.1°C 61% 3.5 mph NNE5.6 kmh NNE 9.8 mph15.8 kmh 29.55 in1000.7 mb 0.00 in0.0 mm 0.00 in0.0 mm 0.00 in0.0 mm
09:35 AM 65.8°F18.8°C 52.2°F11.2°C 62% 5.0 mph N8.0 kmh N 9.8 mph15.8 kmh 29.55 in1000.7 mb 0.00 in0.0 mm 0.00 in0.0 mm 0.00 in0.0 mm
09:30 AM 65.0°F18.3°C 51.3°F10.7°C 61% 4.9 mph NNE7.9 kmh NNE 9.8 mph15.8 kmh 29.55 in1000.7 mb 0.00 in0.0 mm 0.00 in0.0 mm 0.00 in0.0 mm
09:25 AM 63.6°F17.6°C 50.4°F10.2°C 62% 3.4 mph NE5.5 kmh NE 7.4 mph11.9 kmh 29.54 in1000.3 mb 0.00 in0.0 mm 0.00 in0.0 mm 0.00 in0.0 mm
09:20 AM 63.3°F17.4°C 50.7°F10.4°C 64% 3.5 mph NE5.6 kmh NE 9.8 mph15.8 kmh 29.54 in1000.3 mb 0.00 in0.0 mm 0.00 in0.0 mm 0.00 in0.0 mm
09:15 AM 63.3°F17.4°C 51.2°F10.7°C 65% 3.2 mph NE5.1 kmh NE 7.4 mph11.9 kmh 29.54 in1000.3 mb 0.00 in0.0 mm 0.00 in0.0 mm 0.00 in0.0 mm
09:10 AM 63.3°F17.4°C 51.3°F10.7°C 65% 4.8 mph NNE7.7 kmh NNE 9.8 mph15.8 kmh 29.54 in1000.3 mb 0.00 in0.0 mm 0.00 in0.0 mm 0.00 in0.0 mm
09:05 AM 63.3°F17.4°C 51.3°F10.7°C 65% 3.8 mph NNW6.1 kmh NNW 7.4 mph11.9 kmh 29.54 in1000.3 mb 0.00 in0.0 mm 0.00 in0.0 mm 0.00 in0.0 mm
09:00 AM 63.3°F17.4°C 51.3°F10.7°C 65% 5.1 mph NNW8.2 kmh NNW 9.8 mph15.8 kmh 29.53 in1000.0 mb 0.00 in0.0 mm 0.00 in0.0 mm 0.00 in0.0 mm
08:55 AM 63.5°F17.5°C 51.6°F10.9°C 65% 5.0 mph N8.0 kmh N 9.8 mph15.8 kmh 29.53 in1000.0 mb 0.00 in0.0 mm 0.00 in0.0 mm 0.00 in0.0 mm
08:50 AM 63.5°F17.5°C 52.2°F11.2°C 67% 3.8 mph N6.1 kmh N 7.4 mph11.9 kmh 29.52 in999.7 mb 0.00 in0.0 mm 0.00 in0.0 mm 0.00 in0.0 mm
08:45 AM 62.8°F17.1°C 52.2°F11.2°C 68% 5.3 mph NE8.5 kmh NE 9.8 mph15.8 kmh 29.53 in1000.0 mb 0.00 in0.0 mm 0.00 in0.0 mm 0.00 in0.0 mm
08:40 AM 62.7°F17.1°C 52.6°F11.4°C 70% 5.9 mph N9.5 kmh N 12.3 mph19.8 kmh 29.53 in1000.0 mb 0.00 in0.0 mm 0.00 in0.0 mm 0.00 in0.0 mm
08:35 AM 62.7°F17.1°C 52.7°F11.5°C 70% 3.5 mph NNE5.6 kmh NNE 7.4 mph11.9 kmh 29.52 in999.7 mb 0.00 in0.0 mm 0.00 in0.0 mm 0.00 in0.0 mm
08:30 AM 62.8°F17.1°C 52.9°F11.6°C 70% 3.8 mph NE6.1 kmh NE 9.8 mph15.8 kmh 29.52 in999.7 mb 0.00 in0.0 mm 0.00 in0.0 mm 0.00 in0.0 mm
08:25 AM 63.1°F17.3°C 53.3°F11.8°C 70% 5.3 mph NE8.5 kmh NE 9.8 mph15.8 kmh 29.52 in999.7 mb 0.00 in0.0 mm 0.00 in0.0 mm 0.00 in0.0 mm
08:20 AM 63.3°F17.4°C 54.1°F12.3°C 72% 3.8 mph N6.1 kmh N 9.8 mph15.8 kmh 29.52 in999.7 mb 0.00 in0.0 mm 0.00 in0.0 mm 0.00 in0.0 mm
08:15 AM 63.3°F17.4°C 54.7°F12.6°C 74% 4.9 mph N7.9 kmh N 12.3 mph19.8 kmh 29.51 in999.3 mb 0.00 in0.0 mm 0.00 in0.0 mm 0.00 in0.0 mm
08:10 AM 63.5°F17.5°C 56.3°F13.5°C 77% 4.6 mph N7.4 kmh N 9.8 mph15.8 kmh 29.52 in999.7 mb 0.00 in0.0 mm 0.00 in0.0 mm 0.00 in0.0 mm
08:05 AM 63.9°F17.7°C 57.7°F14.3°C 80% 4.5 mph NNW7.2 kmh NNW 7.4 mph11.9 kmh 29.51 in999.3 mb 0.00 in0.0 mm 0.00 in0.0 mm 0.00 in0.0 mm
08:00 AM 63.9°F17.7°C 59.0°F15.0°C 84% 6.2 mph N10.0 kmh N 12.3 mph19.8 kmh 29.51 in999.3 mb 0.00 in0.0 mm 0.00 in0.0 mm 0.00 in0.0 mm
07:55 AM 63.9°F17.7°C 60.3°F15.7°C 88% 3.3 mph NNE5.3 kmh NNE 7.4 mph11.9 kmh 29.51 in999.3 mb 0.00 in0.0 mm 0.00 in0.0 mm 0.00 in0.0 mm
07:50 AM 63.9°F17.7°C 61.0°F16.1°C 90% 4.2 mph NNE6.8 kmh NNE 9.8 mph15.8 kmh 29.50 in999.0 mb 0.00 in0.0 mm 0.00 in0.0 mm 0.00 in0.0 mm
07:45 AM 63.1°F17.3°C 60.8°F16.0°C 92% 3.2 mph NNW5.1 kmh NNW 7.4 mph11.9 kmh 29.50 in999.0 mb 0.00 in0.0 mm 0.00 in0.0 mm 0.00 in0.0 mm
07:40 AM 63.1°F17.3°C 61.0°F16.1°C 93% 2.0 mph N3.2 kmh N 4.9 mph7.9 kmh 29.50 in999.0 mb 0.00 in0.0 mm 0.00 in0.0 mm 0.00 in0.0 mm
07:35 AM 63.1°F17.3°C 61.0°F16.1°C 93% 2.4 mph N3.9 kmh N 7.4 mph11.9 kmh 29.49 in998.6 mb 0.00 in0.0 mm 0.00 in0.0 mm 0.00 in0.0 mm
07:30 AM 63.1°F17.3°C 61.0°F16.1°C 93% 2.9 mph NNW4.7 kmh NNW 4.9 mph7.9 kmh 29.49 in998.6 mb 0.00 in0.0 mm 0.00 in0.0 mm 0.00 in0.0 mm
07:25 AM 62.8°F17.1°C 60.7°F15.9°C 93% 2.5 mph NW4.0 kmh NW 4.9 mph7.9 kmh 29.49 in998.6 mb 0.00 in0.0 mm 0.00 in0.0 mm 0.00 in0.0 mm
07:20 AM 62.8°F17.1°C 60.7°F15.9°C 93% 1.4 mph NW2.3 kmh NW 4.9 mph7.9 kmh 29.49 in998.6 mb 0.00 in0.0 mm 0.00 in0.0 mm 0.00 in0.0 mm
07:15 AM 62.8°F17.1°C 60.7°F15.9°C 93% 2.8 mph NW4.5 kmh NW 7.4 mph11.9 kmh 29.48 in998.3 mb 0.00 in0.0 mm 0.00 in0.0 mm 0.00 in0.0 mm
07:10 AM 62.8°F17.1°C 60.7°F15.9°C 93% 2.1 mph NW3.4 kmh NW 7.4 mph11.9 kmh 29.48 in998.3 mb 0.00 in0.0 mm 0.00 in0.0 mm 0.00 in0.0 mm
07:05 AM 63.0°F17.2°C 60.9°F16.1°C 93% 2.4 mph WNW3.9 kmh WNW 4.9 mph7.9 kmh 29.47 in998.0 mb 0.00 in0.0 mm 0.00 in0.0 mm 0.00 in0.0 mm
07:00 AM 63.1°F17.3°C 61.0°F16.1°C 93% 2.2 mph NW3.5 kmh NW 4.9 mph7.9 kmh 29.47 in998.0 mb 0.00 in0.0 mm 0.00 in0.0 mm 0.00 in0.0 mm
06:55 AM 63.1°F17.3°C 61.0°F16.1°C 93% 2.2 mph NW3.5 kmh NW 4.9 mph7.9 kmh 29.47 in998.0 mb 0.00 in0.0 mm 0.00 in0.0 mm 0.00 in0.0 mm
06:50 AM 63.1°F17.3°C 61.0°F16.1°C 93% 3.5 mph WNW5.6 kmh WNW 9.8 mph15.8 kmh 29.46 in997.6 mb 0.00 in0.0 mm 0.00 in0.0 mm 0.00 in0.0 mm
06:45 AM 63.8°F17.7°C 61.8°F16.6°C 93% 1.2 mph WNW1.9 kmh WNW 4.9 mph7.9 kmh 29.46 in997.6 mb 0.00 in0.0 mm 0.00 in0.0 mm 0.00 in0.0 mm
06:40 AM 63.9°F17.7°C 62.0°F16.7°C 94% 1.4 mph WNW2.3 kmh WNW 4.9 mph7.9 kmh 29.45 in997.3 mb 0.00 in0.0 mm 0.00 in0.0 mm 0.00 in0.0 mm
06:35 AM 63.9°F17.7°C 62.1°F16.7°C 94% 1.1 mph WNW1.8 kmh WNW 2.5 mph4.0 kmh 29.46 in997.6 mb 0.00 in0.0 mm 0.00 in0.0 mm 0.00 in0.0 mm
06:30 AM 64.0°F17.8°C 62.2°F16.8°C 94% 1.8 mph WNW2.9 kmh WNW 4.9 mph7.9 kmh 29.46 in997.6 mb 0.00 in0.0 mm 0.00 in0.0 mm 0.00 in0.0 mm
06:25 AM 64.9°F18.3°C 63.1°F17.3°C 94% 1.8 mph WNW2.9 kmh WNW 4.9 mph7.9 kmh 29.45 in997.3 mb 0.00 in0.0 mm 0.00 in0.0 mm 0.00 in0.0 mm
06:20 AM 65.3°F18.5°C 63.8°F17.7°C 95% 1.0 mph WNW1.6 kmh WNW 4.9 mph7.9 kmh 29.45 in997.3 mb 0.00 in0.0 mm 0.00 in0.0 mm 0.00 in0.0 mm
06:15 AM 65.5°F18.6°C 64.0°F17.8°C 95% 2.3 mph WNW3.7 kmh WNW 7.4 mph11.9 kmh 29.45 in997.3 mb 0.00 in0.0 mm 0.00 in0.0 mm 0.00 in0.0 mm
06:10 AM 65.6°F18.7°C 64.1°F17.8°C 95% 1.2 mph NW1.9 kmh NW 4.9 mph7.9 kmh 29.45 in997.3 mb 0.00 in0.0 mm 0.00 in0.0 mm 0.00 in0.0 mm
06:05 AM 65.9°F18.8°C 64.6°F18.1°C 95% 0.3 mph W0.5 kmh W 2.5 mph4.0 kmh 29.44 in997.0 mb 0.00 in0.0 mm 0.00 in0.0 mm 0.00 in0.0 mm
06:00 AM 66.2°F19.0°C 64.9°F18.3°C 96% 0.2 mph W0.3 kmh W 2.5 mph4.0 kmh 29.44 in997.0 mb 0.00 in0.0 mm 0.00 in0.0 mm 0.00 in0.0 mm
05:55 AM 66.2°F19.0°C 64.4°F18.0°C 94% Calm Calm -- 29.44 in997.0 mb 0.00 in0.0 mm 0.00 in0.0 mm 0.00 in0.0 mm
05:50 AM 66.2°F19.0°C 64.4°F18.0°C 94% Calm Calm 2.5 mph4.0 kmh 29.44 in997.0 mb 0.00 in0.0 mm 0.00 in0.0 mm 0.00 in0.0 mm
05:45 AM 65.9°F18.8°C 64.1°F17.8°C 94% Calm Calm -- 29.44 in997.0 mb 0.00 in0.0 mm 0.00 in0.0 mm 0.00 in0.0 mm
05:40 AM 65.8°F18.8°C 64.3°F17.9°C 95% Calm Calm -- 29.44 in997.0 mb 0.00 in0.0 mm 0.00 in0.0 mm 0.00 in0.0 mm
05:35 AM 65.8°F18.8°C 64.3°F17.9°C 95% Calm Calm -- 29.44 in997.0 mb 0.00 in0.0 mm 0.00 in0.0 mm 0.00 in0.0 mm
05:30 AM 65.8°F18.8°C 64.3°F17.9°C 95% Calm Calm 2.5 mph4.0 kmh 29.43 in996.6 mb 0.00 in0.0 mm 0.00 in0.0 mm 0.00 in0.0 mm
05:25 AM 66.4°F19.1°C 64.7°F18.2°C 94% Calm Calm -- 29.43 in996.6 mb 0.00 in0.0 mm 0.00 in0.0 mm 0.00 in0.0 mm
05:20 AM 66.7°F19.3°C 64.9°F18.3°C 94% 0.5 mph WNW0.8 kmh WNW 2.5 mph4.0 kmh 29.44 in997.0 mb 0.00 in0.0 mm 0.00 in0.0 mm 0.00 in0.0 mm
05:15 AM 66.9°F19.4°C 64.8°F18.2°C 93% 2.2 mph WNW3.5 kmh WNW 4.9 mph7.9 kmh 29.43 in996.6 mb 0.00 in0.0 mm 0.00 in0.0 mm 0.00 in0.0 mm
05:10 AM 66.9°F19.4°C 64.8°F18.2°C 93% 0.3 mph W0.5 kmh W 2.5 mph4.0 kmh 29.43 in996.6 mb 0.00 in0.0 mm 0.00 in0.0 mm 0.00 in0.0 mm
05:05 AM 67.5°F19.7°C 65.4°F18.6°C 93% 3.4 mph WNW5.5 kmh WNW 7.4 mph11.9 kmh 29.43 in996.6 mb 0.00 in0.0 mm 0.00 in0.0 mm 0.00 in0.0 mm
05:00 AM 67.8°F19.9°C 65.4°F18.6°C 92% 0.6 mph WNW1.0 kmh WNW 4.9 mph7.9 kmh 29.43 in996.6 mb 0.00 in0.0 mm 0.00 in0.0 mm 0.00 in0.0 mm
04:55 AM 67.8°F19.9°C 65.4°F18.6°C 92% Calm Calm -- 29.42 in996.3 mb 0.00 in0.0 mm 0.00 in0.0 mm 0.00 in0.0 mm
04:50 AM 67.8°F19.9°C 65.7°F18.7°C 93% 0.6 mph SSW1.0 kmh SSW 2.5 mph4.0 kmh 29.42 in996.3 mb 0.00 in0.0 mm 0.00 in0.0 mm 0.00 in0.0 mm
04:45 AM 67.7°F19.8°C 65.6°F18.7°C 93% 0.2 mph SW0.3 kmh SW 2.5 mph4.0 kmh 29.42 in996.3 mb 0.00 in0.0 mm 0.00 in0.0 mm 0.00 in0.0 mm
04:40 AM 67.6°F19.8°C 65.5°F18.6°C 93% 0.7 mph S1.1 kmh S 2.5 mph4.0 kmh 29.42 in996.3 mb 0.00 in0.0 mm 0.00 in0.0 mm 0.00 in0.0 mm
04:35 AM 67.7°F19.8°C 65.6°F18.7°C 93% 1.4 mph SSW2.3 kmh SSW 4.9 mph7.9 kmh 29.42 in996.3 mb 0.00 in0.0 mm 0.00 in0.0 mm 0.00 in0.0 mm
04:30 AM 67.8°F19.9°C 65.7°F18.7°C 93% 0.8 mph S1.3 kmh S 4.9 mph7.9 kmh 29.43 in996.6 mb 0.00 in0.0 mm 0.00 in0.0 mm 0.00 in0.0 mm
04:25 AM 67.8°F19.9°C 65.7°F18.7°C 93% Calm Calm -- 29.43 in996.6 mb 0.00 in0.0 mm 0.00 in0.0 mm 0.00 in0.0 mm
04:20 AM 67.8°F19.9°C 65.5°F18.6°C 92% Calm Calm -- 29.43 in996.6 mb 0.00 in0.0 mm 0.00 in0.0 mm 0.00 in0.0 mm
04:15 AM 67.8°F19.9°C 65.7°F18.7°C 93% Calm Calm -- 29.43 in996.6 mb 0.00 in0.0 mm 0.00 in0.0 mm 0.00 in0.0 mm
04:10 AM 67.9°F19.9°C 65.6°F18.7°C 92% Calm Calm -- 29.42 in996.3 mb 0.00 in0.0 mm 0.00 in0.0 mm 0.00 in0.0 mm
04:05 AM 67.8°F19.9°C 65.4°F18.6°C 92% Calm Calm -- 29.42 in996.3 mb 0.00 in0.0 mm 0.00 in0.0 mm 0.00 in0.0 mm
04:00 AM 67.6°F19.8°C 65.2°F18.4°C 92% Calm Calm -- 29.42 in996.3 mb 0.00 in0.0 mm 0.00 in0.0 mm 0.00 in0.0 mm
03:55 AM 67.5°F19.7°C 65.2°F18.4°C 92% 0.3 mph W0.5 kmh W 2.5 mph4.0 kmh 29.42 in996.3 mb 0.00 in0.0 mm 0.00 in0.0 mm 0.00 in0.0 mm
03:50 AM 67.5°F19.7°C 65.4°F18.6°C 93% 0.2 mph W0.3 kmh W 2.5 mph4.0 kmh 29.42 in996.3 mb 0.00 in0.0 mm 0.00 in0.0 mm 0.00 in0.0 mm
03:45 AM 67.5°F19.7°C 65.4°F18.6°C 93% Calm Calm -- 29.43 in996.6 mb 0.00 in0.0 mm 0.00 in0.0 mm 0.00 in0.0 mm
03:40 AM 67.5°F19.7°C 65.4°F18.6°C 93% Calm Calm -- 29.43 in996.6 mb 0.00 in0.0 mm 0.00 in0.0 mm 0.00 in0.0 mm
03:35 AM 67.5°F19.7°C 65.4°F18.6°C 93% Calm Calm -- 29.43 in996.6 mb 0.00 in0.0 mm 0.00 in0.0 mm 0.00 in0.0 mm
03:30 AM 67.5°F19.7°C 65.3°F18.5°C 93% Calm Calm -- 29.43 in996.6 mb 0.00 in0.0 mm 0.00 in0.0 mm 0.00 in0.0 mm
03:25 AM 67.7°F19.8°C 65.3°F18.5°C 92% Calm Calm -- 29.43 in996.6 mb 0.00 in0.0 mm 0.00 in0.0 mm 0.00 in0.0 mm
03:20 AM 68.0°F20.0°C 65.6°F18.7°C 92% Calm Calm -- 29.43 in996.6 mb 0.00 in0.0 mm 0.00 in0.0 mm 0.00 in0.0 mm
03:15 AM 68.0°F20.0°C 65.4°F18.6°C 92% Calm Calm -- 29.43 in996.6 mb 0.00 in0.0 mm 0.00 in0.0 mm 0.00 in0.0 mm
03:10 AM 68.1°F20.1°C 65.7°F18.7°C 92% Calm Calm -- 29.43 in996.6 mb 0.00 in0.0 mm 0.00 in0.0 mm 0.00 in0.0 mm
03:05 AM 68.1°F20.1°C 65.7°F18.7°C 92% Calm Calm -- 29.43 in996.6 mb 0.00 in0.0 mm 0.00 in0.0 mm 0.00 in0.0 mm
03:00 AM 68.0°F20.0°C 65.6°F18.7°C 92% 0.2 mph W0.3 kmh W 2.5 mph4.0 kmh 29.43 in996.6 mb 0.00 in0.0 mm 0.00 in0.0 mm 0.00 in0.0 mm
02:55 AM 68.0°F20.0°C 65.5°F18.6°C 92% 0.3 mph W0.5 kmh W 2.5 mph4.0 kmh 29.43 in996.6 mb 0.00 in0.0 mm 0.00 in0.0 mm 0.00 in0.0 mm
02:50 AM 68.0°F20.0°C 65.3°F18.5°C 91% Calm Calm 2.5 mph4.0 kmh 29.43 in996.6 mb 0.00 in0.0 mm 0.00 in0.0 mm 0.00 in0.0 mm
02:45 AM 68.2°F20.1°C 65.5°F18.6°C 91% Calm Calm -- 29.43 in996.6 mb 0.00 in0.0 mm 0.00 in0.0 mm 0.00 in0.0 mm
02:40 AM 68.2°F20.1°C 65.5°F18.6°C 91% 0.3 mph SW0.5 kmh SW 2.5 mph4.0 kmh 29.43 in996.6 mb 0.00 in0.0 mm 0.00 in0.0 mm 0.00 in0.0 mm
02:35 AM 68.2°F20.1°C 65.5°F18.6°C 91% Calm Calm -- 29.43 in996.6 mb 0.00 in0.0 mm 0.00 in0.0 mm 0.00 in0.0 mm
02:30 AM 68.2°F20.1°C 65.4°F18.6°C 91% 0.1 mph SW0.2 kmh SW 2.5 mph4.0 kmh 29.43 in996.6 mb 0.00 in0.0 mm 0.00 in0.0 mm 0.00 in0.0 mm
02:25 AM 68.3°F20.2°C 65.2°F18.4°C 90% Calm Calm -- 29.43 in996.6 mb 0.00 in0.0 mm 0.00 in0.0 mm 0.00 in0.0 mm
02:20 AM 68.7°F20.4°C 65.6°F18.7°C 90% Calm Calm -- 29.43 in996.6 mb 0.00 in0.0 mm 0.00 in0.0 mm 0.00 in0.0 mm
02:15 AM 68.7°F20.4°C 65.6°F18.7°C 90% 0.2 mph W0.3 kmh W 2.5 mph4.0 kmh 29.43 in996.6 mb 0.00 in0.0 mm 0.00 in0.0 mm 0.00 in0.0 mm
02:10 AM 68.8°F20.4°C 65.8°F18.8°C 90% 0.4 mph WSW0.6 kmh WSW 2.5 mph4.0 kmh 29.43 in996.6 mb 0.00 in0.0 mm 0.00 in0.0 mm 0.00 in0.0 mm
02:05 AM 68.9°F20.5°C 65.8°F18.8°C 90% 1.3 mph NW2.1 kmh NW 2.5 mph4.0 kmh 29.42 in996.3 mb 0.00 in0.0 mm 0.00 in0.0 mm 0.00 in0.0 mm
02:00 AM 68.7°F20.4°C 65.6°F18.7°C 90% 2.1 mph SW3.4 kmh SW 4.9 mph7.9 kmh 29.42 in996.3 mb 0.00 in0.0 mm 0.00 in0.0 mm 0.00 in0.0 mm
01:55 AM 68.7°F20.4°C 65.6°F18.7°C 90% 2.9 mph SSW4.7 kmh SSW 7.4 mph11.9 kmh 29.42 in996.3 mb 0.00 in0.0 mm 0.00 in0.0 mm 0.00 in0.0 mm
01:50 AM 68.7°F20.4°C 65.6°F18.7°C 90% 4.0 mph S6.4 kmh S 9.8 mph15.8 kmh 29.41 in995.9 mb 0.00 in0.0 mm 0.00 in0.0 mm 0.00 in0.0 mm
01:45 AM 68.7°F20.4°C 65.6°F18.7°C 90% 3.0 mph SSW4.8 kmh SSW 9.8 mph15.8 kmh 29.41 in995.9 mb 0.00 in0.0 mm 0.00 in0.0 mm 0.00 in0.0 mm
01:40 AM 68.7°F20.4°C 65.6°F18.7°C 90% 4.2 mph S6.8 kmh S 9.8 mph15.8 kmh 29.41 in995.9 mb 0.00 in0.0 mm 0.00 in0.0 mm 0.00 in0.0 mm
01:35 AM 68.7°F20.4°C 65.3°F18.5°C 89% 3.7 mph SSW6.0 kmh SSW 12.3 mph19.8 kmh 29.42 in996.3 mb 0.00 in0.0 mm 0.00 in0.0 mm 0.00 in0.0 mm
01:30 AM 68.7°F20.4°C 65.3°F18.5°C 89% 2.4 mph SW3.9 kmh SW 7.4 mph11.9 kmh 29.41 in995.9 mb 0.00 in0.0 mm 0.00 in0.0 mm 0.00 in0.0 mm
01:25 AM 68.8°F20.4°C 65.2°F18.4°C 88% 2.9 mph SW4.7 kmh SW 9.8 mph15.8 kmh 29.41 in995.9 mb 0.00 in0.0 mm 0.00 in0.0 mm 0.00 in0.0 mm
01:20 AM 69.1°F20.6°C 65.4°F18.6°C 88% 4.0 mph SW6.4 kmh SW 7.4 mph11.9 kmh 29.41 in995.9 mb 0.00 in0.0 mm 0.00 in0.0 mm 0.00 in0.0 mm
01:15 AM 69.1°F20.6°C 65.4°F18.6°C 88% 3.2 mph SSW5.1 kmh SSW 9.8 mph15.8 kmh 29.41 in995.9 mb 0.00 in0.0 mm 0.00 in0.0 mm 0.00 in0.0 mm
01:10 AM 69.2°F20.7°C 65.1°F18.4°C 87% 4.0 mph S6.4 kmh S 9.8 mph15.8 kmh 29.41 in995.9 mb 0.00 in0.0 mm 0.00 in0.0 mm 0.00 in0.0 mm
01:05 AM 69.3°F20.7°C 65.3°F18.5°C 87% 4.4 mph SSW7.1 kmh SSW 12.3 mph19.8 kmh 29.41 in995.9 mb 0.00 in0.0 mm 0.00 in0.0 mm 0.00 in0.0 mm
01:00 AM 69.3°F20.7°C 65.1°F18.4°C 86% 4.0 mph SSW6.4 kmh SSW 7.4 mph11.9 kmh 29.41 in995.9 mb 0.00 in0.0 mm 0.00 in0.0 mm 0.00 in0.0 mm
12:55 AM 69.4°F20.8°C 65.0°F18.3°C 86% 5.0 mph SW8.0 kmh SW 9.8 mph15.8 kmh 29.41 in995.9 mb 0.00 in0.0 mm 0.00 in0.0 mm 0.00 in0.0 mm
12:50 AM 69.4°F20.8°C 64.9°F18.3°C 86% 5.5 mph S8.9 kmh S 15.0 mph24.1 kmh 29.41 in995.9 mb 0.00 in0.0 mm 0.00 in0.0 mm 0.00 in0.0 mm
12:45 AM 69.4°F20.8°C 64.7°F18.2°C 85% 7.3 mph S11.7 kmh S 15.0 mph24.1 kmh 29.41 in995.9 mb 0.00 in0.0 mm 0.00 in0.0 mm 0.00 in0.0 mm
12:40 AM 69.8°F21.0°C 65.0°F18.3°C 85% 7.9 mph S12.7 kmh S 17.4 mph28.0 kmh 29.41 in995.9 mb 0.00 in0.0 mm 0.00 in0.0 mm 0.00 in0.0 mm
12:35 AM 69.8°F21.0°C 64.7°F18.2°C 84% 5.7 mph S9.2 kmh S 12.3 mph19.8 kmh 29.41 in995.9 mb 0.00 in0.0 mm 0.00 in0.0 mm 0.00 in0.0 mm
12:30 AM 69.8°F21.0°C 64.3°F17.9°C 83% 6.0 mph S9.7 kmh S 9.8 mph15.8 kmh 29.41 in995.9 mb 0.00 in0.0 mm 0.00 in0.0 mm 0.00 in0.0 mm
12:25 AM 69.8°F21.0°C 63.9°F17.7°C 82% 8.8 mph S14.2 kmh S 12.3 mph19.8 kmh 29.40 in995.6 mb 0.00 in0.0 mm 0.00 in0.0 mm 0.00 in0.0 mm
12:20 AM 70.3°F21.3°C 64.2°F17.9°C 81% 7.5 mph S12.1 kmh S 19.9 mph32.0 kmh 29.40 in995.6 mb 0.00 in0.0 mm 0.00 in0.0 mm 0.00 in0.0 mm
12:15 AM 70.3°F21.3°C 63.9°F17.7°C 80% 11.9 mph S19.2 kmh S 19.9 mph32.0 kmh 29.41 in995.9 mb 0.00 in0.0 mm 0.00 in0.0 mm 0.00 in0.0 mm
12:10 AM 70.3°F21.3°C 63.8°F17.7°C 80% 8.4 mph S13.5 kmh S 12.3 mph19.8 kmh 29.41 in995.9 mb 0.00 in0.0 mm 0.00 in0.0 mm 0.00 in0.0 mm
12:05 AM 70.3°F21.3°C 63.5°F17.5°C 79% 9.0 mph S14.5 kmh S 17.4 mph28.0 kmh 29.41 in995.9 mb 0.00 in0.0 mm 0.00 in0.0 mm 0.00 in0.0 mm
12:00 AM 70.7°F21.5°C 63.6°F17.6°C 78% 9.1 mph SSE14.6 kmh SSE 12.3 mph19.8 kmh 29.41 in995.9 mb 0.00 in0.0 mm 0.00 in0.0 mm 0.00 in0.0 mm